Time;durP1;ratioP1;P1;durP2;ratioP2;P2;SDS_P1;SDS_P2;PMS_P1;PMS_P2;Temp;Humidity;BMP_temperature;BMP_pressure;BME280_temperature;BME280_humidity;BME280_pressure;Samples;Min_cycle;Max_cycle;Signal;HPM_P1;HPM_P2
2021/05/17 00:00:09;;;;;;;;;;;;;;;22.31;36.41;99151.88;5341114;26;34189;-90
2021/05/17 00:02:42;;;;;;;;;;;;;;;22.39;36.42;99150.38;5322987;26;33418;-89
2021/05/17 00:05:11;;;;;;;;;;;;;;;22.49;36.44;99141.44;5322810;26;33404;-90
2021/05/17 00:07:38;;;;;;;;;;;;;;;22.45;37.14;99139.22;5304372;26;33142;-89
2021/05/17 00:10:07;;;;;;;;;;;;;;;22.73;37.04;99128.75;5304514;26;34033;-90
2021/05/17 00:12:35;;;;;;;;;;;;;;;22.51;37.66;99128.88;5288506;26;893878;-90
2021/05/17 00:15:05;;;;;;;;;;;;;;;22.60;37.37;99121.91;5309404;26;31710;-89
2021/05/17 00:17:33;;;;;;;;;;;;;;;22.17;37.71;99123.09;5322584;26;34728;-90
2021/05/17 00:20:03;;;;;;;;;;;;;;;20.97;38.57;99115.72;5304243;26;33034;-88
2021/05/17 00:22:30;;;;;;;;;;;;;;;21.62;38.65;99108.44;5304237;26;33811;-89
2021/05/17 00:24:57;;;;;;;;;;;;;;;21.64;38.46;99101.16;5322287;26;33031;-90
2021/05/17 00:27:26;;;;;;;;;;;;;;;22.60;36.67;99097.16;5304501;26;33766;-89
2021/05/17 00:29:53;;;;;;;;;;;;;;;22.42;36.96;99094.37;5304238;26;33188;-89
2021/05/17 00:32:21;;;;;;;;;;;;;;;22.77;36.00;99101.75;5304319;26;32947;-90
2021/05/17 00:34:53;;;;;;;;;;;;;;;22.62;35.86;99100.53;5287853;26;32099;-89
2021/05/17 00:37:20;;;;;;;;;;;;;;;22.85;35.07;99099.25;5322331;26;34900;-90
2021/05/17 00:39:48;;;;;;;;;;;;;;;22.93;34.85;99098.50;5304242;26;33450;-89
2021/05/17 00:42:16;;;;;;;;;;;;;;;22.56;35.50;99103.72;5322241;26;33052;-90
2021/05/17 00:44:44;;;;;;;;;;;;;;;23.04;34.70;99102.00;5322556;26;32161;-90
2021/05/17 00:47:13;;;;;;;;;;;;;;;22.82;35.31;99096.03;5322538;26;32841;-90
2021/05/17 00:49:43;;;;;;;;;;;;;;;23.40;34.25;99094.22;5304212;26;34141;-89
2021/05/17 00:52:11;;;;;;;;;;;;;;;23.74;33.60;99075.88;5340577;26;34734;-89
2021/05/17 00:54:41;;;;;;;;;;;;;;;23.13;34.89;99079.88;5287428;26;33202;-89
2021/05/17 00:57:08;;;;;;;;;;;;;;;22.71;35.93;99088.19;5305743;26;33021;-90
2021/05/17 00:59:36;;;;;;;;;;;;;;;23.17;34.97;99086.63;5306204;26;33145;-89
2021/05/17 01:02:05;;;;;;;;;;;;;;;23.35;34.43;99082.22;5305781;26;34328;-88
2021/05/17 01:04:35;;;;;;;;;;;;;;;23.72;33.72;99075.22;5307043;26;32134;-89
2021/05/17 01:07:03;;;;;;;;;;;;;;;23.49;34.06;99077.41;5305587;26;33052;-89
2021/05/17 01:09:32;;;;;;;;;;;;;;;23.51;34.07;99075.44;5304578;26;33246;-89
2021/05/17 01:12:00;;;;;;;;;;;;;;;23.04;34.96;99083.41;5304798;26;32868;-89
2021/05/17 01:14:29;;;;;;;;;;;;;;;22.28;36.63;99074.34;5304669;26;32391;-89
2021/05/17 01:16:58;;;;;;;;;;;;;;;22.09;37.05;99069.88;5322957;26;34267;-88
2021/05/17 01:19:34;;;;;;;;;;;;;;;22.40;36.48;99067.97;5304167;26;34119;-89
2021/05/17 01:22:09;;;;;;;;;;;;;;;22.16;37.03;99066.56;5304579;26;33201;-90
2021/05/17 01:24:39;;;;;;;;;;;;;;;22.77;35.80;99058.44;5340550;26;33083;-89
2021/05/17 01:27:09;;;;;;;;;;;;;;;22.01;37.63;99059.97;5322430;26;34065;-89
2021/05/17 01:29:37;;;;;;;;;;;;;;;21.36;39.49;99055.84;5304224;26;33159;-90
2021/05/17 01:32:05;;;;;;;;;;;;;;;21.84;38.72;99050.84;5303839;26;32871;-89
2021/05/17 01:34:36;;;;;;;;;;;;;;;21.17;40.65;99055.78;5322667;26;33649;-89
2021/05/17 01:37:08;;;;;;;;;;;;;;;21.05;41.13;99057.66;5305587;26;32942;-89
2021/05/17 01:39:36;;;;;;;;;;;;;;;20.89;42.35;99058.13;5341475;26;33739;-89
2021/05/17 01:42:04;;;;;;;;;;;;;;;20.48;43.71;99054.47;5341109;26;34918;-89
2021/05/17 01:44:33;;;;;;;;;;;;;;;21.61;41.49;99066.97;5323255;26;34462;-89
2021/05/17 01:47:01;;;;;;;;;;;;;;;21.75;41.24;99059.62;5322921;26;32843;-89
2021/05/17 01:49:31;;;;;;;;;;;;;;;20.96;42.01;99058.44;5323897;26;33700;-89
2021/05/17 01:51:58;;;;;;;;;;;;;;;20.99;41.96;99056.37;5324374;26;34226;-89
2021/05/17 01:54:30;;;;;;;;;;;;;;;20.95;41.94;99054.09;5324213;26;32374;-89
2021/05/17 01:56:58;;;;;;;;;;;;;;;21.35;41.02;99045.38;5306000;26;32966;-88
2021/05/17 01:59:31;;;;;;;;;;;;;;;21.37;40.68;99046.09;5305953;26;33649;-89
2021/05/17 02:02:00;;;;;;;;;;;;;;;21.19;40.91;99052.03;5323201;26;34432;-90
2021/05/17 02:04:30;;;;;;;;;;;;;;;21.48;40.16;99045.97;5304769;26;32738;-89
2021/05/17 02:06:58;;;;;;;;;;;;;;;21.58;39.96;99051.34;5322858;26;33028;-90
2021/05/17 02:09:27;;;;;;;;;;;;;;;20.99;41.01;99037.00;5286813;26;34027;-90
2021/05/17 02:11:57;;;;;;;;;;;;;;;21.77;39.38;99039.94;5305143;26;33915;-90
2021/05/17 02:14:25;;;;;;;;;;;;;;;21.88;39.29;99044.28;5323220;26;32881;-89
2021/05/17 02:16:54;;;;;;;;;;;;;;;21.88;39.26;99039.00;5286677;26;32706;-89
2021/05/17 02:19:23;;;;;;;;;;;;;;;21.29;40.67;99032.69;5323008;26;33970;-91
2021/05/17 02:21:52;;;;;;;;;;;;;;;22.46;38.06;99038.22;5304989;26;33884;-90
2021/05/17 02:24:20;;;;;;;;;;;;;;;22.33;38.16;99037.62;5341394;26;32784;-88
2021/05/17 02:26:48;;;;;;;;;;;;;;;21.56;39.66;99033.91;5323205;26;33692;-90
2021/05/17 02:29:17;;;;;;;;;;;;;;;21.64;39.44;99036.72;5341332;26;33718;-89
2021/05/17 02:31:44;;;;;;;;;;;;;;;21.54;39.80;99023.44;5304551;26;33077;-89
2021/05/17 02:34:13;;;;;;;;;;;;;;;21.63;39.77;99025.28;5322651;26;32403;-90
2021/05/17 02:36:41;;;;;;;;;;;;;;;22.06;39.11;99020.59;5323153;26;33499;-90
2021/05/17 02:39:10;;;;;;;;;;;;;;;22.25;38.26;99024.25;5305168;26;33380;-90
2021/05/17 02:41:37;;;;;;;;;;;;;;;21.55;39.66;99017.16;5341299;26;33933;-90
2021/05/17 02:44:06;;;;;;;;;;;;;;;21.75;39.25;99023.38;5322949;26;32516;-90
2021/05/17 02:46:34;;;;;;;;;;;;;;;22.54;37.55;99013.62;5322765;26;32785;-90
2021/05/17 02:49:02;;;;;;;;;;;;;;;21.82;39.21;99019.19;5322709;26;33978;-89
2021/05/17 02:51:30;;;;;;;;;;;;;;;21.79;39.22;99013.31;5304650;26;32780;-89
2021/05/17 02:53:58;;;;;;;;;;;;;;;21.00;41.03;99012.19;5305492;26;32180;-89
2021/05/17 02:56:32;;;;;;;;;;;;;;;21.12;41.01;99005.00;5323587;26;32867;-90
2021/05/17 02:59:01;;;;;;;;;;;;;;;21.47;40.01;99003.72;5324096;26;33502;-89
2021/05/17 03:01:35;;;;;;;;;;;;;;;21.53;39.66;99003.19;5305705;26;33029;-88
2021/05/17 03:04:12;;;;;;;;;;;;;;;21.94;38.97;99009.28;5307947;26;32131;-90
2021/05/17 03:06:40;;;;;;;;;;;;;;;21.88;39.09;99001.87;5287003;26;33007;-89
2021/05/17 03:09:09;;;;;;;;;;;;;;;21.85;38.95;99012.75;5286500;26;33925;-89
2021/05/17 03:11:41;;;;;;;;;;;;;;;21.69;39.37;99011.47;5304622;26;33230;-89
2021/05/17 03:14:10;;;;;;;;;;;;;;;21.79;39.36;99010.66;5286437;26;32258;-90
2021/05/17 03:16:39;;;;;;;;;;;;;;;21.91;38.99;99021.97;5322832;26;34166;-91
2021/05/17 03:19:06;;;;;;;;;;;;;;;22.09;38.68;99017.66;5307205;26;33084;-89
2021/05/17 03:21:34;;;;;;;;;;;;;;;22.47;38.01;99018.66;5314759;26;33428;-89
2021/05/17 03:24:02;;;;;;;;;;;;;;;22.07;38.76;99021.44;5335204;26;33975;-89
2021/05/17 03:26:29;;;;;;;;;;;;;;;21.81;40.46;99021.97;5319455;26;32689;-89
2021/05/17 03:28:58;;;;;;;;;;;;;;;22.15;40.64;99008.31;5321385;26;34057;-90
2021/05/17 03:31:26;;;;;;;;;;;;;;;22.96;38.74;99009.75;5312447;26;34094;-89
2021/05/17 03:33:56;;;;;;;;;;;;;;;23.13;38.63;99008.16;5323305;26;32941;-89
2021/05/17 03:36:24;;;;;;;;;;;;;;;22.83;39.58;99013.56;5287472;26;33782;-89
2021/05/17 03:38:52;;;;;;;;;;;;;;;22.84;39.79;99009.94;5305978;26;33029;-88
2021/05/17 03:41:20;;;;;;;;;;;;;;;22.98;39.57;99013.94;5341412;26;33712;-89
2021/05/17 03:43:48;;;;;;;;;;;;;;;23.20;39.18;99005.78;5304733;26;33290;-89
2021/05/17 03:46:16;;;;;;;;;;;;;;;23.26;38.87;99002.53;5322244;26;32774;-89
2021/05/17 03:48:44;;;;;;;;;;;;;;;22.98;39.64;98998.00;5340941;26;33645;-89
2021/05/17 03:51:12;;;;;;;;;;;;;;;22.79;39.72;98998.06;5322531;26;34064;-90
2021/05/17 03:53:40;;;;;;;;;;;;;;;23.24;39.18;98985.91;5304478;26;32633;-89
2021/05/17 03:56:07;;;;;;;;;;;;;;;22.59;40.62;98987.50;5322098;26;33394;-89
2021/05/17 03:58:35;;;;;;;;;;;;;;;22.71;40.08;98980.22;5303772;26;33135;-89
2021/05/17 04:01:03;;;;;;;;;;;;;;;22.26;40.83;98986.13;5304255;26;34346;-89
2021/05/17 04:03:32;;;;;;;;;;;;;;;21.86;41.67;98979.97;5304472;26;33077;-88
2021/05/17 04:06:22;;;;;;;;;;;;;;;21.92;41.55;98975.94;5322682;26;33915;-88
2021/05/17 04:14:23;;;;;;;;;;;;;;;22.29;40.23;98973.38;5325450;26;32216;-90
2021/05/17 04:16:51;;;;;;;;;;;;;;;22.13;40.09;98975.78;5322545;26;33016;-92
2021/05/17 04:19:19;;;;;;;;;;;;;;;21.86;40.41;98977.31;5304725;26;33500;-91
2021/05/17 04:21:48;;;;;;;;;;;;;;;21.64;40.62;98973.94;5305813;26;32931;-89
2021/05/17 04:24:16;;;;;;;;;;;;;;;21.50;41.20;98967.19;5322899;26;33534;-90
2021/05/17 04:26:43;;;;;;;;;;;;;;;21.81;40.79;98969.78;5304555;26;32913;-89
2021/05/17 04:29:11;;;;;;;;;;;;;;;21.99;40.08;98977.88;5322769;26;34062;-89
2021/05/17 04:31:39;;;;;;;;;;;;;;;22.26;38.85;98976.34;5304274;26;33004;-89
2021/05/17 04:34:07;;;;;;;;;;;;;;;22.17;39.01;98985.13;5304512;26;32122;-89
2021/05/17 04:36:35;;;;;;;;;;;;;;;22.00;39.25;98992.81;5304301;26;32630;-89
2021/05/17 04:39:04;;;;;;;;;;;;;;;21.93;39.50;98991.69;5304197;26;34656;-90
2021/05/17 04:41:31;;;;;;;;;;;;;;;21.44;40.97;98980.16;5304578;26;33795;-90
2021/05/17 04:43:59;;;;;;;;;;;;;;;21.30;41.45;98984.84;5286272;26;32978;-90
2021/05/17 04:46:27;;;;;;;;;;;;;;;21.85;41.28;98987.06;5304109;26;32911;-90
2021/05/17 04:49:00;;;;;;;;;;;;;;;21.40;42.45;98992.00;5340861;26;33823;-90
2021/05/17 04:51:27;;;;;;;;;;;;;;;21.12;44.12;98997.06;5304088;26;32887;-89
2021/05/17 04:53:55;;;;;;;;;;;;;;;20.89;45.69;98994.59;5322437;26;32189;-89
2021/05/17 04:56:23;;;;;;;;;;;;;;;21.54;43.93;98993.44;5322474;26;34988;-86
2021/05/17 04:58:51;;;;;;;;;;;;;;;21.31;45.02;98999.78;5304181;26;33765;-88
2021/05/17 05:01:19;;;;;;;;;;;;;;;21.88;43.26;98999.22;5304316;26;34115;-91
2021/05/17 05:03:50;;;;;;;;;;;;;;;22.15;43.04;98989.72;5305012;26;33683;-88
2021/05/17 05:06:17;;;;;;;;;;;;;;;22.73;41.64;98985.38;5304226;26;33071;-89
2021/05/17 05:08:45;;;;;;;;;;;;;;;22.89;41.09;98985.59;5340917;26;33340;-88
2021/05/17 05:11:14;;;;;;;;;;;;;;;22.81;41.16;98986.31;5343199;26;33366;-88
2021/05/17 05:13:42;;;;;;;;;;;;;;;22.85;40.51;98989.50;5342754;26;32813;-88
2021/05/17 05:16:10;;;;;;;;;;;;;;;22.06;42.09;98985.25;5306063;26;33867;-88
2021/05/17 05:18:41;;;;;;;;;;;;;;;21.98;42.49;98997.41;5307438;26;33025;-89
2021/05/17 05:21:08;;;;;;;;;;;;;;;22.24;42.02;98996.84;5324742;26;33882;-89
2021/05/17 05:23:36;;;;;;;;;;;;;;;21.97;43.42;98997.56;5324199;26;31903;-88
2021/05/17 05:34:01;;;;;;;;;;;;;;;21.85;45.75;98991.56;5326303;26;32507;-89
2021/05/17 05:36:29;;;;;;;;;;;;;;;21.48;46.85;98976.25;5307216;26;32919;-89
2021/05/17 05:38:59;;;;;;;;;;;;;;;21.68;46.24;98969.19;5325327;26;34197;-90
2021/05/17 05:41:27;;;;;;;;;;;;;;;22.07;45.88;98979.00;5324595;26;34013;-88
2021/05/17 05:43:55;;;;;;;;;;;;;;;21.85;46.08;98987.06;5306696;26;32105;-89
2021/05/17 05:46:23;;;;;;;;;;;;;;;21.78;46.41;98980.66;5309999;26;32774;-89
2021/05/17 05:48:51;;;;;;;;;;;;;;;21.84;46.58;98985.41;5310975;26;33901;-89
2021/05/17 05:51:23;;;;;;;;;;;;;;;21.76;47.41;98985.25;5328437;26;32936;-89
2021/05/17 05:53:51;;;;;;;;;;;;;;;22.47;45.83;98991.28;5310748;26;32410;-91
2021/05/17 05:56:18;;;;;;;;;;;;;;;22.66;44.72;98988.59;5329517;26;33006;-88
2021/05/17 05:58:46;;;;;;;;;;;;;;;22.39;45.75;98991.16;5312510;26;32891;-89
2021/05/17 06:01:20;;;;;;;;;;;;;;;21.75;47.67;98991.56;5331160;26;33771;-86
2021/05/17 06:03:49;;;;;;;;;;;;;;;22.38;46.09;98997.44;5331827;26;31723;-87
2021/05/17 06:06:17;;;;;;;;;;;;;;;21.77;47.27;99013.44;5332660;26;32688;-90
2021/05/17 06:08:46;;;;;;;;;;;;;;;21.75;47.80;99007.47;5312253;26;33224;-90
2021/05/17 06:11:16;;;;;;;;;;;;;;;21.31;49.02;99009.53;5315834;26;33126;-90
2021/05/17 06:13:44;;;;;;;;;;;;;;;21.41;48.65;99012.22;5328504;26;32047;-89
2021/05/17 06:16:13;;;;;;;;;;;;;;;21.62;48.15;99015.66;5326910;26;32846;-89
2021/05/17 06:18:42;;;;;;;;;;;;;;;21.54;48.82;99006.69;5327971;26;34904;-90
2021/05/17 06:21:10;;;;;;;;;;;;;;;21.56;49.30;98999.47;5309376;26;32701;-89
2021/05/17 06:23:39;;;;;;;;;;;;;;;21.11;49.89;98995.37;5306555;26;32473;-91
2021/05/17 06:26:08;;;;;;;;;;;;;;;22.31;46.74;98986.50;5326577;26;32835;-92
2021/05/17 06:28:36;;;;;;;;;;;;;;;21.54;48.66;98991.66;5344976;26;33598;-86
2021/05/17 06:31:05;;;;;;;;;;;;;;;21.68;48.36;98988.63;5326402;26;33922;-89
2021/05/17 06:33:35;;;;;;;;;;;;;;;21.61;49.29;98981.34;5305413;26;32224;-87
2021/05/17 06:36:03;;;;;;;;;;;;;;;21.66;49.37;98987.91;5341423;26;34076;-88
2021/05/17 06:38:30;;;;;;;;;;;;;;;22.28;47.40;98970.88;5323216;26;32946;-88
2021/05/17 06:41:00;;;;;;;;;;;;;;;22.85;46.28;98979.75;5322769;26;34984;-90
2021/05/17 06:43:30;;;;;;;;;;;;;;;22.12;47.39;98979.41;5300626;26;32734;-89
2021/05/17 06:45:59;;;;;;;;;;;;;;;22.05;48.01;98973.84;5339137;26;33599;-89
2021/05/17 06:48:27;;;;;;;;;;;;;;;22.33;47.95;98984.56;5340663;26;34817;-90
2021/05/17 06:50:55;;;;;;;;;;;;;;;21.47;49.35;98971.91;5304326;26;32948;-89
2021/05/17 06:53:24;;;;;;;;;;;;;;;22.02;48.54;98966.16;5304387;26;31992;-91
2021/05/17 06:58:28;;;;;;;;;;;;;;;22.13;48.28;98973.13;5305103;26;33049;-94
2021/05/17 07:00:56;;;;;;;;;;;;;;;21.91;49.08;98975.09;5340697;26;33985;-90
2021/05/17 07:03:24;;;;;;;;;;;;;;;22.11;48.82;98969.78;5304214;26;31978;-90
2021/05/17 07:05:53;;;;;;;;;;;;;;;22.36;48.35;98971.03;5304592;26;32953;-89
2021/05/17 07:13:55;;;;;;;;;;;;;;;21.70;50.14;98969.91;5326585;26;31962;-93
2021/05/17 07:16:24;;;;;;;;;;;;;;;22.06;49.17;98967.56;5324444;26;34310;-94
2021/05/17 07:18:51;;;;;;;;;;;;;;;21.89;49.32;98962.94;5305652;26;33480;-92
2021/05/17 07:23:48;;;;;;;;;;;;;;;22.23;49.04;98960.72;5324184;26;31968;-93
2021/05/17 07:26:17;;;;;;;;;;;;;;;21.95;49.73;98965.03;5306256;26;34022;-93
2021/05/17 07:28:49;;;;;;;;;;;;;;;22.06;49.14;98964.91;5306750;26;33760;-92
2021/05/17 07:31:18;;;;;;;;;;;;;;;21.84;49.70;98955.41;5306901;26;32494;-92
2021/05/17 07:33:45;;;;;;;;;;;;;;;22.02;49.28;98967.00;5323357;26;32553;-93
2021/05/17 07:36:13;;;;;;;;;;;;;;;21.55;50.63;98963.31;5306401;26;32569;-93
2021/05/17 07:38:42;;;;;;;;;;;;;;;21.87;49.65;98952.47;5306549;26;32895;-93
2021/05/17 07:41:10;;;;;;;;;;;;;;;22.13;49.08;98952.75;5306637;26;33281;-92
2021/05/17 07:43:38;;;;;;;;;;;;;;;22.22;48.97;98955.53;5324289;26;33708;-92
2021/05/17 07:46:08;;;;;;;;;;;;;;;21.74;49.86;98943.94;5306797;26;33010;-92
2021/05/17 07:49:03;;;;;;;;;;;;;;;21.56;51.21;98952.59;5324284;26;34270;-93
2021/05/17 07:51:28;;;;;;;;;;;;;;;21.62;50.40;98945.88;5327717;26;33566;-93
2021/05/17 07:53:56;;;;;;;;;;;;;;;22.41;48.00;98949.41;5306017;26;32047;-93
2021/05/17 07:56:24;;;;;;;;;;;;;;;21.11;50.99;98945.91;5305628;26;32626;-93
2021/05/17 07:58:52;;;;;;;;;;;;;;;21.28;50.10;98939.09;5287712;26;34336;-93
2021/05/17 08:01:20;;;;;;;;;;;;;;;21.50;50.47;98939.88;5305953;26;33525;-93
2021/05/17 08:03:50;;;;;;;;;;;;;;;20.91;52.34;98930.91;5306125;26;33201;-92
2021/05/17 08:06:18;;;;;;;;;;;;;;;21.83;49.91;98928.06;5325698;26;34446;-92
2021/05/17 08:08:49;;;;;;;;;;;;;;;22.29;49.25;98925.63;5307948;26;33623;-92
2021/05/17 08:11:19;;;;;;;;;;;;;;;22.66;47.79;98919.56;5333053;26;33462;-94
2021/05/17 08:13:47;;;;;;;;;;;;;;;21.99;50.12;98919.53;5317754;26;32252;-91
2021/05/17 08:16:23;;;;;;;;;;;;;;;22.54;48.94;98925.22;5336314;26;32862;-92
2021/05/17 08:18:52;;;;;;;;;;;;;;;22.42;49.75;98914.75;5350585;26;33981;-92
2021/05/17 08:21:21;;;;;;;;;;;;;;;21.81;51.35;98915.91;5331861;26;33224;-92
2021/05/17 08:23:52;;;;;;;;;;;;;;;22.84;48.80;98913.47;5333500;26;32506;-93
2021/05/17 08:26:20;;;;;;;;;;;;;;;23.12;48.13;98916.13;5314412;26;33264;-93
2021/05/17 08:28:48;;;;;;;;;;;;;;;22.55;49.63;98910.94;5327660;26;33882;-93
2021/05/17 08:31:19;;;;;;;;;;;;;;;22.35;48.76;98911.00;5326499;26;34501;-93
2021/05/17 08:33:48;;;;;;;;;;;;;;;22.49;49.26;98902.56;5307492;26;32099;-93
2021/05/17 08:36:17;;;;;;;;;;;;;;;22.68;50.03;98900.81;5305731;26;34019;-93
2021/05/17 08:38:44;;;;;;;;;;;;;;;22.40;50.43;98894.66;5304901;26;34242;-94
2021/05/17 08:41:12;;;;;;;;;;;;;;;22.45;50.93;98892.41;5323075;26;34381;-93
2021/05/17 08:43:41;;;;;;;;;;;;;;;22.65;50.36;98896.63;5304511;26;32082;-94
2021/05/17 08:46:13;;;;;;;;;;;;;;;22.60;50.46;98888.31;5308638;26;32890;-92
2021/05/17 08:48:49;;;;;;;;;;;;;;;22.55;50.34;98890.56;5323798;26;33079;-94
2021/05/17 08:51:22;;;;;;;;;;;;;;;22.23;52.54;98886.44;5306203;26;33986;-94
2021/05/17 08:53:51;;;;;;;;;;;;;;;22.39;51.26;98885.84;5305577;26;32142;-93
2021/05/17 08:56:19;;;;;;;;;;;;;;;23.21;49.09;98882.56;5305192;26;33990;-92
2021/05/17 08:58:48;;;;;;;;;;;;;;;22.70;50.32;98890.91;5341733;26;34886;-92
2021/05/17 09:01:16;;;;;;;;;;;;;;;22.83;50.65;98880.78;5304999;26;34466;-92
2021/05/17 09:03:52;;;;;;;;;;;;;;;22.63;50.19;98889.81;5305646;26;33201;-92
2021/05/17 09:06:23;;;;;;;;;;;;;;;22.97;49.07;98886.59;5304797;26;32718;-91
2021/05/17 09:08:51;;;;;;;;;;;;;;;23.18;47.75;98878.38;5304902;26;32902;-93
2021/05/17 09:11:45;;;;;;;;;;;;;;;23.28;48.61;98875.66;5305033;26;33162;-93
2021/05/17 09:14:13;;;;;;;;;;;;;;;22.92;49.46;98878.22;5318959;26;33253;-93
2021/05/17 09:16:48;;;;;;;;;;;;;;;22.94;49.11;98876.28;5305171;26;32930;-92
2021/05/17 09:19:19;;;;;;;;;;;;;;;22.62;49.45;98873.06;5305607;26;34341;-93
2021/05/17 09:22:06;;;;;;;;;;;;;;;22.63;49.54;98874.72;5305126;26;32806;-93
2021/05/17 09:24:37;;;;;;;;;;;;;;;22.14;51.15;98874.03;5323064;26;31925;-93
2021/05/17 09:27:04;;;;;;;;;;;;;;;23.20;48.33;98868.47;5304375;26;33302;-92
2021/05/17 09:30:01;;;;;;;;;;;;;;;22.94;48.59;98863.00;5305693;26;33229;-91
2021/05/17 09:32:32;;;;;;;;;;;;;;;22.34;50.26;98859.72;5339733;26;33768;-92
2021/05/17 09:35:15;;;;;;;;;;;;;;;22.58;49.51;98868.19;5308697;26;31736;-92
2021/05/17 09:37:48;;;;;;;;;;;;;;;22.77;48.97;98859.28;5323367;26;34459;-93
2021/05/17 09:40:19;;;;;;;;;;;;;;;22.60;49.94;98859.09;5304789;26;34287;-93
2021/05/17 09:42:59;;;;;;;;;;;;;;;22.85;49.26;98843.47;5304414;26;32891;-92
2021/05/17 09:45:47;;;;;;;;;;;;;;;23.08;48.72;98843.03;5345364;26;33109;-93
2021/05/17 09:48:19;;;;;;;;;;;;;;;22.42;49.75;98850.22;5323689;26;33392;-93
2021/05/17 09:51:12;;;;;;;;;;;;;;;22.38;50.13;98846.16;5286795;26;32951;-95
2021/05/17 09:53:42;;;;;;;;;;;;;;;22.73;49.85;98836.69;5330152;26;33895;-93
2021/05/17 09:56:22;;;;;;;;;;;;;;;22.77;49.64;98832.75;5326382;26;34031;-91
2021/05/17 09:58:57;;;;;;;;;;;;;;;21.88;50.92;98832.16;5324955;26;32904;-91
2021/05/17 10:01:27;;;;;;;;;;;;;;;22.40;49.85;98828.31;5306842;26;34438;-92
2021/05/17 10:04:03;;;;;;;;;;;;;;;22.91;48.68;98818.97;5290409;26;32713;-93
2021/05/17 10:07:03;;;;;;;;;;;;;;;22.48;49.65;98818.63;5312457;26;32269;-94
2021/05/17 10:09:53;;;;;;;;;;;;;;;21.97;51.04;98814.59;5289414;27;33942;-93
2021/05/17 10:12:23;;;;;;;;;;;;;;;22.36;50.11;98817.13;5280702;27;33904;-94
2021/05/17 10:14:51;;;;;;;;;;;;;;;22.95;48.21;98804.41;5280955;27;32916;-92
2021/05/17 10:17:20;;;;;;;;;;;;;;;22.49;49.35;98811.50;5297529;27;33981;-92
2021/05/17 10:19:49;;;;;;;;;;;;;;;22.00;51.34;98807.19;5281722;27;33112;-91
2021/05/17 10:22:18;;;;;;;;;;;;;;;22.11;50.68;98802.66;5299991;27;34015;-93
2021/05/17 10:24:47;;;;;;;;;;;;;;;22.62;49.68;98800.56;5264418;27;32823;-89
2021/05/17 10:27:27;;;;;;;;;;;;;;;22.14;50.62;98799.75;5299574;27;33454;-89
2021/05/17 10:30:05;;;;;;;;;;;;;;;22.49;50.21;98798.22;5285545;27;32887;-94
2021/05/17 10:32:51;;;;;;;;;;;;;;;22.64;49.48;98786.16;5276050;27;33130;-93
2021/05/17 10:35:41;;;;;;;;;;;;;;;22.47;50.38;98794.88;5293762;27;33228;-92
2021/05/17 10:38:39;;;;;;;;;;;;;;;22.67;50.01;98796.47;5288605;27;32198;-92
2021/05/17 10:41:33;;;;;;;;;;;;;;;22.39;50.56;98792.13;5287901;27;32813;-93
2021/05/17 10:47:06;;;;;;;;;;;;;;;22.59;49.91;98783.09;5285015;27;33657;-93
2021/05/17 10:50:11;;;;;;;;;;;;;;;22.63;49.66;98784.47;5303346;27;32191;-94
2021/05/17 10:52:39;;;;;;;;;;;;;;;21.55;51.92;98783.94;5262583;27;33927;-93
2021/05/17 10:55:33;;;;;;;;;;;;;;;22.17;51.04;98783.53;5270654;27;32759;-94
2021/05/17 11:00:38;;;;;;;;;;;;;;;20.87;55.64;98779.44;5264046;27;32106;-93
2021/05/17 11:03:10;;;;;;;;;;;;;;;20.95;55.46;98778.75;5301226;27;32934;-94
2021/05/17 11:05:57;;;;;;;;;;;;;;;21.65;54.04;98771.53;5269372;27;33232;-93
2021/05/17 11:08:27;;;;;;;;;;;;;;;22.14;52.77;98775.88;5267207;27;33255;-95
2021/05/17 11:11:15;;;;;;;;;;;;;;;22.07;52.64;98775.63;5268385;27;32046;-93
2021/05/17 11:14:15;;;;;;;;;;;;;;;21.67;53.24;98766.06;5288966;27;33355;-93
2021/05/17 11:17:14;;;;;;;;;;;;;;;21.87;53.30;98781.94;5347361;26;20023;-95
2021/05/17 11:19:56;;;;;;;;;;;;;;;20.82;56.23;98776.34;5314943;26;32566;-91
2021/05/17 11:22:44;;;;;;;;;;;;;;;22.26;51.92;98756.13;5341225;26;33852;-88
2021/05/17 11:25:11;;;;;;;;;;;;;;;21.64;52.53;98784.91;5326758;26;33069;-93
2021/05/17 11:27:55;;;;;;;;;;;;;;;20.52;52.87;98796.59;5274950;27;32735;-92
2021/05/17 11:30:39;;;;;;;;;;;;;;;20.13;54.20;98788.47;5300717;27;33451;-88
2021/05/17 11:33:11;;;;;;;;;;;;;;;19.71;55.95;98796.44;5317528;27;33460;-86
2021/05/17 11:35:57;;;;;;;;;;;;;;;20.27;54.74;98797.88;5298353;27;33021;-91
2021/05/17 11:38:24;;;;;;;;;;;;;;;20.58;53.94;98806.66;5317982;27;35511;-91
2021/05/17 11:40:53;;;;;;;;;;;;;;;19.99;55.13;98810.84;5299687;27;33482;-92
2021/05/17 11:43:23;;;;;;;;;;;;;;;19.93;53.98;98806.91;5320206;27;33072;-96
2021/05/17 11:46:16;;;;;;;;;;;;;;;21.07;51.68;98801.47;5339876;26;32979;-94
2021/05/17 11:48:59;;;;;;;;;;;;;;;20.76;53.43;98817.44;5326072;26;32952;-94
2021/05/17 11:51:44;;;;;;;;;;;;;;;20.87;52.93;98811.19;5323050;27;33325;-95
2021/05/17 11:54:33;;;;;;;;;;;;;;;21.73;50.52;98815.88;5284467;27;32690;-94
2021/05/17 11:57:44;;;;;;;;;;;;;;;21.81;50.30;98821.31;5297183;27;32576;-94
2021/05/17 12:00:47;;;;;;;;;;;;;;;21.55;50.86;98821.03;5309754;27;34698;-93
2021/05/17 12:03:42;;;;;;;;;;;;;;;21.89;49.06;98823.25;5269240;27;19993;-95
2021/05/17 12:06:25;;;;;;;;;;;;;;;21.71;49.45;98824.94;5249981;27;34311;-94
2021/05/17 12:09:07;;;;;;;;;;;;;;;21.49;49.41;98830.38;5277203;27;33423;-92
2021/05/17 12:12:03;;;;;;;;;;;;;;;21.72;47.85;98826.63;5247810;27;33442;-93
2021/05/17 12:14:47;;;;;;;;;;;;;;;21.28;49.89;98833.13;5221323;27;32886;-92
2021/05/17 12:17:44;;;;;;;;;;;;;;;20.29;51.85;98832.97;5260053;27;31948;-93
2021/05/17 12:20:34;;;;;;;;;;;;;;;20.81;50.44;98836.41;5297267;27;35002;-95
2021/05/17 12:27:00;;;;;;;;;;;;;;;21.79;48.08;98838.31;5281031;27;20285;-90
2021/05/17 12:29:30;;;;;;;;;;;;;;;20.15;52.34;98842.91;5276536;27;33068;-89
2021/05/17 12:32:09;;;;;;;;;;;;;;;21.16;49.50;98839.56;5277468;27;32819;-91
2021/05/17 12:34:49;;;;;;;;;;;;;;;21.46;49.28;98827.16;5271131;27;33152;-93
2021/05/17 12:37:34;;;;;;;;;;;;;;;20.73;51.13;98830.09;5212917;27;33381;-94
2021/05/17 12:40:33;;;;;;;;;;;;;;;20.93;50.54;98825.72;5249439;27;34927;-91
2021/05/17 12:43:21;;;;;;;;;;;;;;;21.21;50.69;98817.94;5291716;27;34139;-91
2021/05/17 12:46:28;;;;;;;;;;;;;;;21.23;51.18;98818.66;5238092;27;33105;-93
2021/05/17 12:49:10;;;;;;;;;;;;;;;21.41;49.58;98824.94;5306591;27;33936;-95
2021/05/17 12:51:56;;;;;;;;;;;;;;;20.84;51.93;98822.91;5256553;27;32239;-93
2021/05/17 12:54:38;;;;;;;;;;;;;;;21.02;50.24;98816.97;5295733;27;32914;-92
2021/05/17 12:57:25;;;;;;;;;;;;;;;21.39;49.47;98812.78;5254080;27;33390;-93
2021/05/17 13:00:39;;;;;;;;;;;;;;;21.32;50.43;98812.50;5271704;27;33177;-91
2021/05/17 13:03:26;;;;;;;;;;;;;;;20.71;51.64;98805.59;5277685;26;32266;-93
2021/05/17 13:12:32;;;;;;;;;;;;;;;19.47;53.57;98803.63;5249788;26;19949;-93
2021/05/17 13:15:18;;;;;;;;;;;;;;;20.58;51.06;98801.38;5228239;27;32695;-91
2021/05/17 13:18:00;;;;;;;;;;;;;;;19.98;52.47;98807.38;5219850;27;33012;-93
2021/05/17 13:20:30;;;;;;;;;;;;;;;19.75;53.06;98801.31;5237767;27;34038;-93
2021/05/17 13:32:12;;;;;;;;;;;;;;;19.96;50.75;98803.16;5281526;27;34008;-94
2021/05/17 13:34:58;;;;;;;;;;;;;;;20.15;51.14;98813.00;5261536;27;33153;-93
2021/05/17 13:37:45;;;;;;;;;;;;;;;20.24;50.51;98812.22;5298905;27;32392;-94
2021/05/17 13:40:40;;;;;;;;;;;;;;;19.22;52.67;98809.28;5299942;27;34567;-92
2021/05/17 13:43:30;;;;;;;;;;;;;;;20.07;51.34;98811.00;5284579;27;34620;-88
2021/05/17 13:45:58;;;;;;;;;;;;;;;20.47;49.50;98812.84;5278256;27;34076;-89
2021/05/17 13:48:26;;;;;;;;;;;;;;;20.99;48.59;98814.56;5287671;27;32460;-92
2021/05/17 13:50:53;;;;;;;;;;;;;;;21.32;46.98;98809.88;5300983;27;33695;-92
2021/05/17 13:53:22;;;;;;;;;;;;;;;21.89;46.19;98817.94;5283777;27;32996;-95
2021/05/17 13:55:50;;;;;;;;;;;;;;;21.73;46.57;98813.22;5283822;27;32963;-93
2021/05/17 13:58:20;;;;;;;;;;;;;;;22.06;45.82;98810.22;5285430;27;32139;-92
2021/05/17 14:00:48;;;;;;;;;;;;;;;21.79;46.20;98817.97;5304990;27;34027;-89
2021/05/17 14:03:17;;;;;;;;;;;;;;;21.79;45.93;98827.72;5304939;27;34999;-91
2021/05/17 14:05:45;;;;;;;;;;;;;;;22.13;44.97;98819.28;5286425;27;34054;-92